Nf67 Femarnbaelt II — OU3102 — position and weather

sailwx.info

Track history (hours):
 
Tides and Currents Weather Stations Pressure Air Temp Water Temp Dewpoint Dewpoint Depression Visibility Wind Speed Wind Dir Waves Ship Positions

Nf67 Femarnbaelt II

Last reported at 2015-Mar-28 15:21 UTC. Time now 2015-Mar-29 23:48 UTC.
Position N 54°39' E 011°21'.

Length 15 m.

Type: Fishing. MMSI: 219012459.

Date/timePositionNaut miles runAvg speedWind from/ knotsBaromVisibWave heightAir tempDewpointWater temp
2015-Mar-28 15:21N 54°39' E 011°21'2 0.1
2015-Mar-27 10:27N 54°37' E 011°20'6 1.1
2015-Mar-27 05:11N 54°32' E 011°23'4 6.6
2015-Mar-27 04:33N 54°36' E 011°22'4 0.2
2015-Mar-26 09:33N 54°32' E 011°19'3 3.1
2015-Mar-26 08:33N 54°29' E 011°21'3 3.1
2015-Mar-26 07:33N 54°27' E 011°26'1 1.4
2015-Mar-26 06:33N 54°26' E 011°24'3 3.3
2015-Mar-26 05:33N 54°29' E 011°21'5 4.6
2015-Mar-26 04:33N 54°34' E 011°21'6 0.3
2015-Mar-25 08:20N 54°28' E 011°22'2 3.2
2015-Mar-25 07:33N 54°27' E 011°26'2 1.9
2015-Mar-25 06:33N 54°27' E 011°29'3 3.4
2015-Mar-25 05:33N 54°29' E 011°25'5 4.6
2015-Mar-25 04:33N 54°33' E 011°22'4 0.2
2015-Mar-24 11:24N 54°29' E 011°21'3 1.1
2015-Mar-24 08:33N 54°32' E 011°20'3 3.2
2015-Mar-24 07:33N 54°30' E 011°24'1 0.6
2015-Mar-24 06:33N 54°29' E 011°24'3 3.5
2015-Mar-24 05:33N 54°32' E 011°20'3 3.1
2015-Mar-24 04:33N 54°35' E 011°19'4 0.2
2015-Mar-23 09:33N 54°39' E 011°21'8 8.0
2015-Mar-23 08:33N 54°31' E 011°25'2 2.4
2015-Mar-23 07:33N 54°29' E 011°26'3 3.2
2015-Mar-23 06:33N 54°30' E 011°21'7 3.5
2015-Mar-23 04:25N 54°38' E 011°20'  
2015-Mar-20 10:05N 54°37' E 011°20'4 6.5
2015-Mar-20 09:32N 54°34' E 011°18'1 1.3
2015-Mar-20 08:32N 54°33' E 011°18'4 1.1
2015-Mar-20 04:32N 54°37' E 011°20'1 0.1
2015-Mar-19 18:34N 54°36' E 011°18'3 2.9
2015-Mar-19 17:33N 54°33' E 011°17'3 3.5
2015-Mar-19 16:33N 54°31' E 011°22'2 2.0
2015-Mar-19 15:33N 54°30' E 011°24'3 3.3
2015-Mar-19 14:33N 54°32' E 011°20'2 1.9
2015-Mar-19 13:33N 54°33' E 011°17'3 2.6
2015-Mar-19 12:33N 54°31' E 011°21'2 1.5
2015-Mar-19 11:33N 54°30' E 011°23'3 3.2
2015-Mar-19 10:33N 54°32' E 011°18'1 0.7
2015-Mar-19 09:33N 54°33' E 011°18'4 3.5
2015-Mar-19 08:33N 54°30' E 011°22'3 3.3
2015-Mar-19 07:33N 54°27' E 011°25'3 2.8
2015-Mar-19 06:32N 54°29' E 011°22'3 3.1
2015-Mar-19 05:33N 54°32' E 011°19'7 6.7
2015-Mar-19 04:32N 54°39' E 011°21'1 0.1
2015-Mar-18 18:33N 54°37' E 011°20'5 4.8
2015-Mar-18 17:33N 54°33' E 011°18'4 3.6
2015-Mar-18 16:33N 54°30' E 011°22'1 0.6
2015-Mar-18 15:33N 54°30' E 011°23'  
Track history (hours):
 
Tides and Currents Weather Stations Pressure Air Temp Water Temp Dewpoint Dewpoint Depression Visibility Wind Speed Wind Dir Waves Ship Positions

Nf67 Femarnbaelt II

Last reported at 2015-Mar-28 15:21 UTC. Time now 2015-Mar-29 23:48 UTC.
Position N 54°39' E 011°21'.

Length 15 m.

Type: Fishing. MMSI: 219012459.

Date/timePositionNaut miles runAvg speedWind from/ knotsBaromVisibWave heightAir tempDewpointWater temp
2015-Mar-28 15:21N 54°39' E 011°21'2 0.1
2015-Mar-27 10:27N 54°37' E 011°20'6 1.1
2015-Mar-27 05:11N 54°32' E 011°23'4 6.6
2015-Mar-27 04:33N 54°36' E 011°22'4 0.2
2015-Mar-26 09:33N 54°32' E 011°19'3 3.1
2015-Mar-26 08:33N 54°29' E 011°21'3 3.1
2015-Mar-26 07:33N 54°27' E 011°26'1 1.4
2015-Mar-26 06:33N 54°26' E 011°24'3 3.3
2015-Mar-26 05:33N 54°29' E 011°21'5 4.6
2015-Mar-26 04:33N 54°34' E 011°21'6 0.3
2015-Mar-25 08:20N 54°28' E 011°22'2 3.2
2015-Mar-25 07:33N 54°27' E 011°26'2 1.9
2015-Mar-25 06:33N 54°27' E 011°29'3 3.4
2015-Mar-25 05:33N 54°29' E 011°25'5 4.6
2015-Mar-25 04:33N 54°33' E 011°22'4 0.2
2015-Mar-24 11:24N 54°29' E 011°21'3 1.1
2015-Mar-24 08:33N 54°32' E 011°20'3 3.2
2015-Mar-24 07:33N 54°30' E 011°24'1 0.6
2015-Mar-24 06:33N 54°29' E 011°24'3 3.5
2015-Mar-24 05:33N 54°32' E 011°20'3 3.1
2015-Mar-24 04:33N 54°35' E 011°19'4 0.2
2015-Mar-23 09:33N 54°39' E 011°21'8 8.0
2015-Mar-23 08:33N 54°31' E 011°25'2 2.4
2015-Mar-23 07:33N 54°29' E 011°26'3 3.2
2015-Mar-23 06:33N 54°30' E 011°21'7 3.5
2015-Mar-23 04:25N 54°38' E 011°20'  
2015-Mar-20 10:05N 54°37' E 011°20'4 6.5
2015-Mar-20 09:32N 54°34' E 011°18'1 1.3
2015-Mar-20 08:32N 54°33' E 011°18'4 1.1
2015-Mar-20 04:32N 54°37' E 011°20'1 0.1
2015-Mar-19 18:34N 54°36' E 011°18'3 2.9
2015-Mar-19 17:33N 54°33' E 011°17'3 3.5
2015-Mar-19 16:33N 54°31' E 011°22'2 2.0
2015-Mar-19 15:33N 54°30' E 011°24'3 3.3
2015-Mar-19 14:33N 54°32' E 011°20'2 1.9
2015-Mar-19 13:33N 54°33' E 011°17'3 2.6
2015-Mar-19 12:33N 54°31' E 011°21'2 1.5
2015-Mar-19 11:33N 54°30' E 011°23'3 3.2
2015-Mar-19 10:33N 54°32' E 011°18'1 0.7
2015-Mar-19 09:33N 54°33' E 011°18'4 3.5
2015-Mar-19 08:33N 54°30' E 011°22'3 3.3
2015-Mar-19 07:33N 54°27' E 011°25'3 2.8
2015-Mar-19 06:32N 54°29' E 011°22'3 3.1
2015-Mar-19 05:33N 54°32' E 011°19'7 6.7
2015-Mar-19 04:32N 54°39' E 011°21'1 0.1
2015-Mar-18 18:33N 54°37' E 011°20'5 4.8
2015-Mar-18 17:33N 54°33' E 011°18'4 3.6
2015-Mar-18 16:33N 54°30' E 011°22'1 0.6
2015-Mar-18 15:33N 54°30' E 011°23'  

Dump ship's entire track history